Terminal Aerodrome Forecast
Issued by NWS

Home | Current Version | Previous Version | Text Only | Print | Product List | Glossary On
Versions: 1 2 3 4 5 6 7 8 9 10 11 12 13 14 15 16 17 18 19
482
FTUS46 KSEW 230520
TAFBFI
TAF
KBFI 230520Z 2306/2406 VRB03KT P6SM BKN150
     FM231400 18003KT P6SM SCT020 OVC080
      TEMPO 2314/2317 BKN020 OVC080
     FM231800 16004KT P6SM FEW025 SCT080
     FM232100 25004KT P6SM SCT080 SCT120=

USA.gov is the U.S. government's official web portal to all federal, state and local government web resources and services.